PWSweather.com
Personal Weather Stations
Station Observations
KV9EWX
Winnebago, Il, Winnebago, IL 61088

Winnebago, IlWinnebago, IL 61088

Lat: 42.261175, Lon: -89.236369

Elevation: 892

Station Type: Lacrosse ws-2811

Latest ConditionsUpdated 1:53:37 PM CDT Saturday, Oct 25, 2014
Currently Today's Max Today's Min Today's Average
Temperature 73.8°F23.2°C 73.8°F23.2°C 50.6°F10.3°C 57.4°F14.1°C
Dew Point 41.1°F5.1°C 56.6°F13.7°C 41.1°F5.1°C 49.7°F9.8°C
Winds 5.1 mph NW8.2 kmh NW 8.3 mph NW13.4 kmh NW - 2.3 mph 3.7 kmh
Wind Gusts 16.4 mph26.4 kmh 18.4 mph29.6 kmh - -
Humidity 31% 93% 31% 79%
Pressure 29.54 in1000.3 mb 29.57 in1001.4 mb 29.48 in998.3 mb -
Hour Temp Dew Point Humidity Winds Wind Gusts Pressure Precip Precip Rate Daily Precip Total
01:53 PM 73.8°F23.2°C 41.1°F5.1°C 31% 5.1 mph NW8.2 kmh NW 16.4 mph26.4 kmh 29.54 in1000.3 mb 0.00 in0.0 mm 0.00 in/hr0.0 mm/hr 0.00 in0.0 mm
01:48 PM 73.8°F23.2°C 41.1°F5.1°C 31% 8.3 mph NW13.4 kmh NW 16.4 mph26.4 kmh 29.54 in1000.3 mb 0.00 in0.0 mm 0.00 in/hr0.0 mm/hr 0.00 in0.0 mm
01:43 PM 73.8°F23.2°C 42.7°F5.9°C 33% 5.4 mph NW8.7 kmh NW 11.0 mph17.7 kmh 29.54 in1000.3 mb 0.00 in0.0 mm 0.00 in/hr0.0 mm/hr 0.00 in0.0 mm
01:38 PM 73.3°F22.9°C 43.9°F6.6°C 35% 2.6 mph W4.2 kmh W 9.4 mph15.1 kmh 29.54 in1000.3 mb 0.00 in0.0 mm 0.00 in/hr0.0 mm/hr 0.00 in0.0 mm
01:33 PM 72.7°F22.6°C 42.5°F5.8°C 34% 3.5 mph WNW5.6 kmh WNW 9.4 mph15.1 kmh 29.54 in1000.3 mb 0.00 in0.0 mm 0.00 in/hr0.0 mm/hr 0.00 in0.0 mm
01:28 PM 72.5°F22.5°C 42.3°F5.7°C 34% 5.1 mph WNW8.2 kmh WNW 18.4 mph29.6 kmh 29.55 in1000.7 mb 0.00 in0.0 mm 0.00 in/hr0.0 mm/hr 0.00 in0.0 mm
01:23 PM 72.5°F22.5°C 41.5°F5.3°C 33% 6.6 mph WSW10.6 kmh WSW 18.4 mph29.6 kmh 29.55 in1000.7 mb 0.00 in0.0 mm 0.00 in/hr0.0 mm/hr 0.00 in0.0 mm
01:18 PM 72.7°F22.6°C 43.3°F6.3°C 35% 4.4 mph NW7.1 kmh NW 12.1 mph19.5 kmh 29.55 in1000.7 mb 0.00 in0.0 mm 0.00 in/hr0.0 mm/hr 0.00 in0.0 mm
01:13 PM 72.5°F22.5°C 43.1°F6.2°C 35% 4.8 mph NW7.7 kmh NW 12.1 mph19.5 kmh 29.55 in1000.7 mb 0.00 in0.0 mm 0.00 in/hr0.0 mm/hr 0.00 in0.0 mm
01:08 PM 72.7°F22.6°C 42.5°F5.8°C 34% 4.2 mph NW6.8 kmh NW 11.7 mph18.8 kmh 29.55 in1000.7 mb 0.00 in0.0 mm 0.00 in/hr0.0 mm/hr 0.00 in0.0 mm
01:03 PM 72.7°F22.6°C 43.3°F6.3°C 35% 4.7 mph NW7.6 kmh NW 11.0 mph17.7 kmh 29.55 in1000.7 mb 0.00 in0.0 mm 0.00 in/hr0.0 mm/hr 0.00 in0.0 mm
12:58 PM 72.7°F22.6°C 44.7°F7.1°C 37% 4.5 mph WNW7.2 kmh WNW 11.0 mph17.7 kmh 29.56 in1001.0 mb 0.00 in0.0 mm 0.00 in/hr0.0 mm/hr 0.00 in0.0 mm
12:53 PM 72.7°F22.6°C 44.7°F7.1°C 37% 5.3 mph W8.5 kmh W 11.0 mph17.7 kmh 29.56 in1001.0 mb 0.00 in0.0 mm 0.00 in/hr0.0 mm/hr 0.00 in0.0 mm
12:48 PM 72.8°F22.7°C 45.6°F7.6°C 38% 4.5 mph W7.2 kmh W 8.2 mph13.2 kmh 29.56 in1001.0 mb 0.00 in0.0 mm 0.00 in/hr0.0 mm/hr 0.00 in0.0 mm
12:43 PM 72.5°F22.5°C 46.7°F8.2°C 40% 5.0 mph W8.0 kmh W 8.2 mph13.2 kmh 29.56 in1001.0 mb 0.00 in0.0 mm 0.00 in/hr0.0 mm/hr 0.00 in0.0 mm
12:38 PM 71.4°F21.9°C 47.0°F8.3°C 42% 1.8 mph NNW2.9 kmh NNW 9.8 mph15.8 kmh 29.56 in1001.0 mb 0.00 in0.0 mm 0.00 in/hr0.0 mm/hr 0.00 in0.0 mm
12:33 PM 70.9°F21.6°C 45.9°F7.7°C 41% 3.1 mph NW5.0 kmh NW 9.8 mph15.8 kmh 29.56 in1001.0 mb 0.00 in0.0 mm 0.00 in/hr0.0 mm/hr 0.00 in0.0 mm
12:28 PM 70.5°F21.4°C 46.2°F7.9°C 42% 4.7 mph NNW7.6 kmh NNW 9.8 mph15.8 kmh 29.56 in1001.0 mb 0.00 in0.0 mm 0.00 in/hr0.0 mm/hr 0.00 in0.0 mm
12:23 PM 70.2°F21.2°C 46.6°F8.1°C 43% 2.9 mph W4.7 kmh W 9.8 mph15.8 kmh 29.56 in1001.0 mb 0.00 in0.0 mm 0.00 in/hr0.0 mm/hr 0.00 in0.0 mm
12:18 PM 69.8°F21.0°C 48.1°F8.9°C 46% 3.1 mph NW5.0 kmh NW 9.8 mph15.8 kmh 29.56 in1001.0 mb 0.00 in0.0 mm 0.00 in/hr0.0 mm/hr 0.00 in0.0 mm
12:13 PM 69.0°F20.6°C 46.1°F7.8°C 44% 3.0 mph NW4.8 kmh NW 9.8 mph15.8 kmh 29.56 in1001.0 mb 0.00 in0.0 mm 0.00 in/hr0.0 mm/hr 0.00 in0.0 mm
12:08 PM 68.5°F20.3°C 45.6°F7.6°C 44% 4.5 mph NW7.2 kmh NW 9.4 mph15.1 kmh 29.56 in1001.0 mb 0.00 in0.0 mm 0.00 in/hr0.0 mm/hr 0.00 in0.0 mm
12:03 PM 68.1°F20.1°C 47.1°F8.4°C 47% 4.9 mph NW7.9 kmh NW 9.4 mph15.1 kmh 29.57 in1001.4 mb 0.00 in0.0 mm 0.00 in/hr0.0 mm/hr 0.00 in0.0 mm
11:58 AM 67.7°F19.8°C 47.9°F8.8°C 49% 2.2 mph NW3.5 kmh NW 8.2 mph13.2 kmh 29.57 in1001.4 mb 0.00 in0.0 mm 0.00 in/hr0.0 mm/hr 0.00 in0.0 mm
11:53 AM 67.2°F19.6°C 46.3°F7.9°C 47% 4.2 mph W6.8 kmh W 7.5 mph12.1 kmh 29.57 in1001.4 mb 0.00 in0.0 mm 0.00 in/hr0.0 mm/hr 0.00 in0.0 mm
11:48 AM 66.7°F19.3°C 47.0°F8.3°C 49% 2.8 mph NW4.5 kmh NW 6.0 mph9.7 kmh 29.57 in1001.4 mb 0.00 in0.0 mm 0.00 in/hr0.0 mm/hr 0.00 in0.0 mm
11:43 AM 66.3°F19.1°C 47.7°F8.7°C 51% 2.0 mph NW3.2 kmh NW 10.5 mph16.9 kmh 29.57 in1001.4 mb 0.00 in0.0 mm 0.00 in/hr0.0 mm/hr 0.00 in0.0 mm
11:38 AM 66.0°F18.9°C 47.4°F8.6°C 51% 3.8 mph NW6.1 kmh NW 10.5 mph16.9 kmh 29.57 in1001.4 mb 0.00 in0.0 mm 0.00 in/hr0.0 mm/hr 0.00 in0.0 mm
11:33 AM 65.3°F18.5°C 47.8°F8.8°C 53% 2.5 mph N4.0 kmh N 9.8 mph15.8 kmh 29.57 in1001.4 mb 0.00 in0.0 mm 0.00 in/hr0.0 mm/hr 0.00 in0.0 mm
11:28 AM 65.1°F18.4°C 47.6°F8.7°C 53% 4.5 mph NW7.2 kmh NW 9.8 mph15.8 kmh 29.57 in1001.4 mb 0.00 in0.0 mm 0.00 in/hr0.0 mm/hr 0.00 in0.0 mm
11:23 AM 65.0°F18.3°C 49.5°F9.7°C 57% 3.2 mph NW5.1 kmh NW 8.9 mph14.3 kmh 29.57 in1001.4 mb 0.00 in0.0 mm 0.00 in/hr0.0 mm/hr 0.00 in0.0 mm
11:18 AM 64.6°F18.1°C 49.1°F9.5°C 57% 4.7 mph NW7.6 kmh NW 6.7 mph10.8 kmh 29.57 in1001.4 mb 0.00 in0.0 mm 0.00 in/hr0.0 mm/hr 0.00 in0.0 mm
11:13 AM 64.2°F17.9°C 51.1°F10.6°C 62% 3.3 mph W5.3 kmh W 9.8 mph15.8 kmh 29.56 in1001.0 mb 0.00 in0.0 mm 0.00 in/hr0.0 mm/hr 0.00 in0.0 mm
11:08 AM 63.9°F17.7°C 51.2°F10.7°C 63% 4.1 mph WNW6.6 kmh WNW 9.8 mph15.8 kmh 29.56 in1001.0 mb 0.00 in0.0 mm 0.00 in/hr0.0 mm/hr 0.00 in0.0 mm
11:03 AM 63.5°F17.5°C 51.3°F10.7°C 64% 3.1 mph WNW5.0 kmh WNW 8.6 mph13.8 kmh 29.56 in1001.0 mb 0.00 in0.0 mm 0.00 in/hr0.0 mm/hr 0.00 in0.0 mm
10:58 AM 63.2°F17.3°C 51.4°F10.8°C 65% 5.5 mph NW8.9 kmh NW 8.6 mph13.8 kmh 29.57 in1001.4 mb 0.00 in0.0 mm 0.00 in/hr0.0 mm/hr 0.00 in0.0 mm
10:53 AM 62.9°F17.2°C 51.5°F10.8°C 66% 2.5 mph NW4.0 kmh NW 5.4 mph8.7 kmh 29.56 in1001.0 mb 0.00 in0.0 mm 0.00 in/hr0.0 mm/hr 0.00 in0.0 mm
10:48 AM 62.7°F17.1°C 51.7°F10.9°C 67% 2.1 mph NW3.4 kmh NW 7.0 mph11.3 kmh 29.56 in1001.0 mb 0.00 in0.0 mm 0.00 in/hr0.0 mm/hr 0.00 in0.0 mm
10:43 AM 62.5°F16.9°C 51.9°F11.1°C 68% 1.8 mph N2.9 kmh N 8.6 mph13.8 kmh 29.56 in1001.0 mb 0.00 in0.0 mm 0.00 in/hr0.0 mm/hr 0.00 in0.0 mm
10:38 AM 62.7°F17.1°C 52.1°F11.2°C 68% 2.8 mph W4.5 kmh W 8.6 mph13.8 kmh 29.56 in1001.0 mb 0.00 in0.0 mm 0.00 in/hr0.0 mm/hr 0.00 in0.0 mm
10:33 AM 62.5°F16.9°C 52.3°F11.3°C 69% 3.4 mph NW5.5 kmh NW 7.9 mph12.7 kmh 29.57 in1001.4 mb 0.00 in0.0 mm 0.00 in/hr0.0 mm/hr 0.00 in0.0 mm
10:28 AM 62.2°F16.8°C 52.8°F11.6°C 71% 2.4 mph NW3.9 kmh NW 7.9 mph12.7 kmh 29.57 in1001.4 mb 0.00 in0.0 mm 0.00 in/hr0.0 mm/hr 0.00 in0.0 mm
10:23 AM 62.0°F16.7°C 53.7°F12.1°C 74% 2.6 mph NW4.2 kmh NW 7.9 mph12.7 kmh 29.57 in1001.4 mb 0.00 in0.0 mm 0.00 in/hr0.0 mm/hr 0.00 in0.0 mm
10:18 AM 61.8°F16.6°C 53.2°F11.8°C 73% 2.4 mph NW3.9 kmh NW 7.9 mph12.7 kmh 29.56 in1001.0 mb 0.00 in0.0 mm 0.00 in/hr0.0 mm/hr 0.00 in0.0 mm
10:13 AM 61.5°F16.4°C 54.0°F12.2°C 76% 1.6 mph WNW2.6 kmh WNW 6.3 mph10.1 kmh 29.56 in1001.0 mb 0.00 in0.0 mm 0.00 in/hr0.0 mm/hr 0.00 in0.0 mm
10:08 AM 61.1°F16.2°C 53.2°F11.8°C 75% 2.8 mph NW4.5 kmh NW 6.7 mph10.8 kmh 29.56 in1001.0 mb 0.00 in0.0 mm 0.00 in/hr0.0 mm/hr 0.00 in0.0 mm
10:03 AM 60.7°F15.9°C 53.2°F11.8°C 76% 1.6 mph WNW2.6 kmh WNW 6.7 mph10.8 kmh 29.56 in1001.0 mb 0.00 in0.0 mm 0.00 in/hr0.0 mm/hr 0.00 in0.0 mm
09:58 AM 60.6°F15.9°C 53.5°F11.9°C 77% 2.5 mph NW4.0 kmh NW 10.5 mph16.9 kmh 29.56 in1001.0 mb 0.00 in0.0 mm 0.00 in/hr0.0 mm/hr 0.00 in0.0 mm
09:53 AM 60.6°F15.9°C 53.8°F12.1°C 78% 2.0 mph NNW3.2 kmh NNW 10.5 mph16.9 kmh 29.56 in1001.0 mb 0.00 in0.0 mm 0.00 in/hr0.0 mm/hr 0.00 in0.0 mm
09:48 AM 60.7°F15.9°C 55.2°F12.9°C 82% 1.9 mph NW3.1 kmh NW 7.0 mph11.3 kmh 29.56 in1001.0 mb 0.00 in0.0 mm 0.00 in/hr0.0 mm/hr 0.00 in0.0 mm
09:43 AM 60.4°F15.8°C 55.3°F12.9°C 83% 2.5 mph NW4.0 kmh NW 11.0 mph17.7 kmh 29.56 in1001.0 mb 0.00 in0.0 mm 0.00 in/hr0.0 mm/hr 0.00 in0.0 mm
09:38 AM 60.2°F15.7°C 55.4°F13.0°C 84% 4.5 mph WNW7.2 kmh WNW 11.0 mph17.7 kmh 29.56 in1001.0 mb 0.00 in0.0 mm 0.00 in/hr0.0 mm/hr 0.00 in0.0 mm
09:33 AM 60.0°F15.6°C 56.5°F13.6°C 88% 1.9 mph W3.1 kmh W 6.0 mph9.7 kmh 29.55 in1000.7 mb 0.00 in0.0 mm 0.00 in/hr0.0 mm/hr 0.00 in0.0 mm
09:28 AM 59.6°F15.3°C 56.6°F13.7°C 90% 2.2 mph NW3.5 kmh NW 6.7 mph10.8 kmh 29.55 in1000.7 mb 0.00 in0.0 mm 0.00 in/hr0.0 mm/hr 0.00 in0.0 mm
09:23 AM 59.0°F15.0°C 56.6°F13.7°C 92% 3.4 mph NW5.5 kmh NW 6.7 mph10.8 kmh 29.55 in1000.7 mb 0.00 in0.0 mm 0.00 in/hr0.0 mm/hr 0.00 in0.0 mm
09:18 AM 58.5°F14.7°C 56.4°F13.6°C 93% 3.2 mph WNW5.1 kmh WNW 6.7 mph10.8 kmh 29.55 in1000.7 mb 0.00 in0.0 mm 0.00 in/hr0.0 mm/hr 0.00 in0.0 mm
09:13 AM 57.8°F14.3°C 55.8°F13.2°C 93% 2.1 mph WNW3.4 kmh WNW 6.0 mph9.7 kmh 29.54 in1000.3 mb 0.00 in0.0 mm 0.00 in/hr0.0 mm/hr 0.00 in0.0 mm
09:08 AM 56.7°F13.7°C 54.4°F12.4°C 92% 2.0 mph NW3.2 kmh NW 6.0 mph9.7 kmh 29.54 in1000.3 mb 0.00 in0.0 mm 0.00 in/hr0.0 mm/hr 0.00 in0.0 mm
09:03 AM 55.9°F13.3°C 53.5°F11.9°C 92% 2.5 mph WNW4.0 kmh WNW 6.0 mph9.7 kmh 29.54 in1000.3 mb 0.00 in0.0 mm 0.00 in/hr0.0 mm/hr 0.00 in0.0 mm
08:58 AM 54.8°F12.7°C 52.5°F11.4°C 92% 2.4 mph WNW3.9 kmh WNW 6.0 mph9.7 kmh 29.54 in1000.3 mb 0.00 in0.0 mm 0.00 in/hr0.0 mm/hr 0.00 in0.0 mm
08:53 AM 53.7°F12.1°C 51.4°F10.8°C 92% 1.9 mph W3.1 kmh W 6.0 mph9.7 kmh 29.54 in1000.3 mb 0.00 in0.0 mm 0.00 in/hr0.0 mm/hr 0.00 in0.0 mm
08:48 AM 52.8°F11.6°C 50.8°F10.4°C 93% 2.2 mph W3.5 kmh W 7.5 mph12.1 kmh 29.54 in1000.3 mb 0.00 in0.0 mm 0.00 in/hr0.0 mm/hr 0.00 in0.0 mm
08:43 AM 52.2°F11.2°C 50.2°F10.1°C 93% 2.7 mph WNW4.3 kmh WNW 7.5 mph12.1 kmh 29.54 in1000.3 mb 0.00 in0.0 mm 0.00 in/hr0.0 mm/hr 0.00 in0.0 mm
08:38 AM 52.0°F11.1°C 50.0°F10.0°C 93% 2.3 mph WNW3.7 kmh WNW 4.7 mph7.6 kmh 29.54 in1000.3 mb 0.00 in0.0 mm 0.00 in/hr0.0 mm/hr 0.00 in0.0 mm
08:32 AM 51.9°F11.1°C 49.9°F9.9°C 93% 3.1 mph WNW5.0 kmh WNW 4.7 mph7.6 kmh 29.54 in1000.3 mb 0.00 in0.0 mm 0.00 in/hr0.0 mm/hr 0.00 in0.0 mm
08:27 AM 51.9°F11.1°C 49.9°F9.9°C 93% 2.4 mph W3.9 kmh W 4.4 mph7.1 kmh 29.53 in1000.0 mb 0.00 in0.0 mm 0.00 in/hr0.0 mm/hr 0.00 in0.0 mm
08:22 AM 51.7°F10.9°C 49.7°F9.8°C 93% 2.0 mph WNW3.2 kmh WNW 4.7 mph7.6 kmh 29.54 in1000.3 mb 0.00 in0.0 mm 0.00 in/hr0.0 mm/hr 0.00 in0.0 mm
08:18 AM 51.7°F10.9°C 49.7°F9.8°C 93% 1.5 mph W2.4 kmh W 4.7 mph7.6 kmh 29.53 in1000.0 mb 0.00 in0.0 mm 0.00 in/hr0.0 mm/hr 0.00 in0.0 mm
08:12 AM 51.5°F10.8°C 49.5°F9.7°C 93% 1.6 mph WSW2.6 kmh WSW 4.4 mph7.1 kmh 29.53 in1000.0 mb 0.00 in0.0 mm 0.00 in/hr0.0 mm/hr 0.00 in0.0 mm
08:07 AM 51.5°F10.8°C 49.5°F9.7°C 93% 2.2 mph WNW3.5 kmh WNW 4.4 mph7.1 kmh 29.53 in1000.0 mb 0.00 in0.0 mm 0.00 in/hr0.0 mm/hr 0.00 in0.0 mm
08:02 AM 51.3°F10.7°C 49.3°F9.6°C 93% 1.7 mph W2.7 kmh W 3.5 mph5.6 kmh 29.53 in1000.0 mb 0.00 in0.0 mm 0.00 in/hr0.0 mm/hr 0.00 in0.0 mm
07:57 AM 51.3°F10.7°C 49.3°F9.6°C 93% 1.9 mph WNW3.1 kmh WNW 4.4 mph7.1 kmh 29.53 in1000.0 mb 0.00 in0.0 mm 0.00 in/hr0.0 mm/hr 0.00 in0.0 mm
07:52 AM 51.3°F10.7°C 49.3°F9.6°C 93% 1.6 mph WNW2.6 kmh WNW 4.4 mph7.1 kmh 29.52 in999.7 mb 0.00 in0.0 mm 0.00 in/hr0.0 mm/hr 0.00 in0.0 mm
07:47 AM 51.3°F10.7°C 49.3°F9.6°C 93% 1.4 mph NW2.3 kmh NW 3.9 mph6.3 kmh 29.52 in999.7 mb 0.00 in0.0 mm 0.00 in/hr0.0 mm/hr 0.00 in0.0 mm
07:42 AM 51.1°F10.6°C 49.1°F9.5°C 93% 1.8 mph W2.9 kmh W 3.1 mph5.0 kmh 29.51 in999.3 mb 0.00 in0.0 mm 0.00 in/hr0.0 mm/hr 0.00 in0.0 mm
07:37 AM 51.3°F10.7°C 49.3°F9.6°C 93% 1.5 mph NW2.4 kmh NW 3.1 mph5.0 kmh 29.51 in999.3 mb 0.00 in0.0 mm 0.00 in/hr0.0 mm/hr 0.00 in0.0 mm
07:32 AM 51.3°F10.7°C 49.3°F9.6°C 93% 0.9 mph W1.4 kmh W 2.8 mph4.5 kmh 29.51 in999.3 mb 0.00 in0.0 mm 0.00 in/hr0.0 mm/hr 0.00 in0.0 mm
07:27 AM 51.3°F10.7°C 49.3°F9.6°C 93% 1.3 mph W2.1 kmh W 3.1 mph5.0 kmh 29.51 in999.3 mb 0.00 in0.0 mm 0.00 in/hr0.0 mm/hr 0.00 in0.0 mm
07:22 AM 51.5°F10.8°C 49.5°F9.7°C 93% 1.9 mph WNW3.1 kmh WNW 3.1 mph5.0 kmh 29.51 in999.3 mb 0.00 in0.0 mm 0.00 in/hr0.0 mm/hr 0.00 in0.0 mm
07:17 AM 51.7°F10.9°C 49.7°F9.8°C 93% 1.4 mph NW2.3 kmh NW 3.1 mph5.0 kmh 29.51 in999.3 mb 0.00 in0.0 mm 0.00 in/hr0.0 mm/hr 0.00 in0.0 mm
07:12 AM 51.7°F10.9°C 49.7°F9.8°C 93% 1.9 mph WNW3.1 kmh WNW 4.4 mph7.1 kmh 29.51 in999.3 mb 0.00 in0.0 mm 0.00 in/hr0.0 mm/hr 0.00 in0.0 mm
07:07 AM 51.9°F11.1°C 49.9°F9.9°C 93% 1.2 mph WNW1.9 kmh WNW 4.4 mph7.1 kmh 29.51 in999.3 mb 0.00 in0.0 mm 0.00 in/hr0.0 mm/hr 0.00 in0.0 mm
07:02 AM 51.9°F11.1°C 49.9°F9.9°C 93% 1.3 mph WNW2.1 kmh WNW 5.4 mph8.7 kmh 29.51 in999.3 mb 0.00 in0.0 mm 0.00 in/hr0.0 mm/hr 0.00 in0.0 mm
06:57 AM 51.9°F11.1°C 49.9°F9.9°C 93% 1.4 mph W2.3 kmh W 5.4 mph8.7 kmh 29.51 in999.3 mb 0.00 in0.0 mm 0.00 in/hr0.0 mm/hr 0.00 in0.0 mm
06:52 AM 51.7°F10.9°C 49.7°F9.8°C 93% 1.8 mph SW2.9 kmh SW 3.9 mph6.3 kmh 29.51 in999.3 mb 0.00 in0.0 mm 0.00 in/hr0.0 mm/hr 0.00 in0.0 mm
06:47 AM 51.7°F10.9°C 49.4°F9.7°C 92% 1.8 mph WNW2.9 kmh WNW 3.5 mph5.6 kmh 29.50 in999.0 mb 0.00 in0.0 mm 0.00 in/hr0.0 mm/hr 0.00 in0.0 mm
06:42 AM 51.7°F10.9°C 49.4°F9.7°C 92% 1.1 mph WNW1.8 kmh WNW 4.4 mph7.1 kmh 29.50 in999.0 mb 0.00 in0.0 mm 0.00 in/hr0.0 mm/hr 0.00 in0.0 mm
06:37 AM 51.7°F10.9°C 49.4°F9.7°C 92% 1.5 mph WNW2.4 kmh WNW 4.4 mph7.1 kmh 29.51 in999.3 mb 0.00 in0.0 mm 0.00 in/hr0.0 mm/hr 0.00 in0.0 mm
06:32 AM 51.9°F11.1°C 49.6°F9.8°C 92% 1.3 mph W2.1 kmh W 3.5 mph5.6 kmh 29.50 in999.0 mb 0.00 in0.0 mm 0.00 in/hr0.0 mm/hr 0.00 in0.0 mm
06:27 AM 52.0°F11.1°C 49.7°F9.8°C 92% 1.5 mph WNW2.4 kmh WNW 4.4 mph7.1 kmh 29.51 in999.3 mb 0.00 in0.0 mm 0.00 in/hr0.0 mm/hr 0.00 in0.0 mm
06:22 AM 52.0°F11.1°C 49.7°F9.8°C 92% 1.6 mph WSW2.6 kmh WSW 4.4 mph7.1 kmh 29.51 in999.3 mb 0.00 in0.0 mm 0.00 in/hr0.0 mm/hr 0.00 in0.0 mm
06:17 AM 52.0°F11.1°C 49.7°F9.8°C 92% 1.7 mph W2.7 kmh W 4.4 mph7.1 kmh 29.51 in999.3 mb 0.00 in0.0 mm 0.00 in/hr0.0 mm/hr 0.00 in0.0 mm
06:12 AM 52.2°F11.2°C 49.9°F9.9°C 92% 1.0 mph WNW1.6 kmh WNW 4.4 mph7.1 kmh 29.51 in999.3 mb 0.00 in0.0 mm 0.00 in/hr0.0 mm/hr 0.00 in0.0 mm
06:07 AM 52.2°F11.2°C 49.9°F9.9°C 92% 1.4 mph W2.3 kmh W 4.4 mph7.1 kmh 29.50 in999.0 mb 0.00 in0.0 mm 0.00 in/hr0.0 mm/hr 0.00 in0.0 mm
06:02 AM 52.4°F11.3°C 50.1°F10.1°C 92% 1.7 mph W2.7 kmh W 4.4 mph7.1 kmh 29.50 in999.0 mb 0.00 in0.0 mm 0.00 in/hr0.0 mm/hr 0.00 in0.0 mm
05:57 AM 52.4°F11.3°C 50.1°F10.1°C 92% 1.3 mph W2.1 kmh W 3.5 mph5.6 kmh 29.50 in999.0 mb 0.00 in0.0 mm 0.00 in/hr0.0 mm/hr 0.00 in0.0 mm
05:52 AM 52.6°F11.4°C 50.3°F10.2°C 92% 1.9 mph WSW3.1 kmh WSW 3.9 mph6.3 kmh 29.50 in999.0 mb 0.00 in0.0 mm 0.00 in/hr0.0 mm/hr 0.00 in0.0 mm
05:47 AM 52.8°F11.6°C 50.5°F10.3°C 92% 1.6 mph W2.6 kmh W 4.4 mph7.1 kmh 29.49 in998.6 mb 0.00 in0.0 mm 0.00 in/hr0.0 mm/hr 0.00 in0.0 mm
05:42 AM 52.8°F11.6°C 50.5°F10.3°C 92% 1.8 mph W2.9 kmh W 4.4 mph7.1 kmh 29.49 in998.6 mb 0.00 in0.0 mm 0.00 in/hr0.0 mm/hr 0.00 in0.0 mm
05:37 AM 52.8°F11.6°C 50.5°F10.3°C 92% 1.5 mph W2.4 kmh W 3.9 mph6.3 kmh 29.49 in998.6 mb 0.00 in0.0 mm 0.00 in/hr0.0 mm/hr 0.00 in0.0 mm
05:32 AM 52.9°F11.6°C 50.6°F10.3°C 92% 1.0 mph W1.6 kmh W 2.3 mph3.7 kmh 29.49 in998.6 mb 0.00 in0.0 mm 0.00 in/hr0.0 mm/hr 0.00 in0.0 mm
05:27 AM 53.1°F11.7°C 50.8°F10.4°C 92% 1.2 mph W1.9 kmh W 5.4 mph8.7 kmh 29.49 in998.6 mb 0.00 in0.0 mm 0.00 in/hr0.0 mm/hr 0.00 in0.0 mm
05:22 AM 53.3°F11.8°C 50.9°F10.5°C 92% 1.3 mph WNW2.1 kmh WNW 5.4 mph8.7 kmh 29.49 in998.6 mb 0.00 in0.0 mm 0.00 in/hr0.0 mm/hr 0.00 in0.0 mm
05:17 AM 53.4°F11.9°C 51.1°F10.6°C 92% 1.5 mph NW2.4 kmh NW 3.1 mph5.0 kmh 29.50 in999.0 mb 0.00 in0.0 mm 0.00 in/hr0.0 mm/hr 0.00 in0.0 mm
05:12 AM 53.4°F11.9°C 51.1°F10.6°C 92% 1.4 mph W2.3 kmh W 6.3 mph10.1 kmh 29.50 in999.0 mb 0.00 in0.0 mm 0.00 in/hr0.0 mm/hr 0.00 in0.0 mm
05:07 AM 53.6°F12.0°C 51.3°F10.7°C 92% 1.8 mph WSW2.9 kmh WSW 6.3 mph10.1 kmh 29.50 in999.0 mb 0.00 in0.0 mm 0.00 in/hr0.0 mm/hr 0.00 in0.0 mm
05:02 AM 53.6°F12.0°C 51.3°F10.7°C 92% 1.2 mph NW1.9 kmh NW 3.1 mph5.0 kmh 29.50 in999.0 mb 0.00 in0.0 mm 0.00 in/hr0.0 mm/hr 0.00 in0.0 mm
04:57 AM 53.7°F12.1°C 51.4°F10.8°C 92% 1.0 mph W1.6 kmh W 4.7 mph7.6 kmh 29.50 in999.0 mb 0.00 in0.0 mm 0.00 in/hr0.0 mm/hr 0.00 in0.0 mm
04:52 AM 54.1°F12.3°C 51.8°F11.0°C 92% 2.1 mph WSW3.4 kmh WSW 4.7 mph7.6 kmh 29.50 in999.0 mb 0.00 in0.0 mm 0.00 in/hr0.0 mm/hr 0.00 in0.0 mm
04:47 AM 54.1°F12.3°C 51.8°F11.0°C 92% 2.0 mph W3.2 kmh W 4.7 mph7.6 kmh 29.50 in999.0 mb 0.00 in0.0 mm 0.00 in/hr0.0 mm/hr 0.00 in0.0 mm
04:42 AM 54.1°F12.3°C 51.8°F11.0°C 92% 2.0 mph W3.2 kmh W 4.4 mph7.1 kmh 29.50 in999.0 mb 0.00 in0.0 mm 0.00 in/hr0.0 mm/hr 0.00 in0.0 mm
04:37 AM 54.3°F12.4°C 52.0°F11.1°C 92% 1.0 mph W1.6 kmh W 6.0 mph9.7 kmh 29.50 in999.0 mb 0.00 in0.0 mm 0.00 in/hr0.0 mm/hr 0.00 in0.0 mm
04:32 AM 54.3°F12.4°C 52.0°F11.1°C 92% 2.3 mph WNW3.7 kmh WNW 6.0 mph9.7 kmh 29.50 in999.0 mb 0.00 in0.0 mm 0.00 in/hr0.0 mm/hr 0.00 in0.0 mm
04:27 AM 54.3°F12.4°C 52.0°F11.1°C 92% 1.8 mph WNW2.9 kmh WNW 7.0 mph11.3 kmh 29.50 in999.0 mb 0.00 in0.0 mm 0.00 in/hr0.0 mm/hr 0.00 in0.0 mm
04:22 AM 54.3°F12.4°C 52.0°F11.1°C 92% 1.9 mph W3.1 kmh W 7.0 mph11.3 kmh 29.49 in998.6 mb 0.00 in0.0 mm 0.00 in/hr0.0 mm/hr 0.00 in0.0 mm
04:17 AM 54.5°F12.5°C 52.2°F11.2°C 92% 1.8 mph WNW2.9 kmh WNW 6.0 mph9.7 kmh 29.49 in998.6 mb 0.00 in0.0 mm 0.00 in/hr0.0 mm/hr 0.00 in0.0 mm
04:12 AM 54.5°F12.5°C 52.2°F11.2°C 92% 2.8 mph WNW4.5 kmh WNW 8.2 mph13.2 kmh 29.49 in998.6 mb 0.00 in0.0 mm 0.00 in/hr0.0 mm/hr 0.00 in0.0 mm
04:07 AM 54.6°F12.6°C 52.3°F11.3°C 92% 3.6 mph W5.8 kmh W 8.2 mph13.2 kmh 29.49 in998.6 mb 0.00 in0.0 mm 0.00 in/hr0.0 mm/hr 0.00 in0.0 mm
04:02 AM 54.6°F12.6°C 52.3°F11.3°C 92% 2.5 mph WNW4.0 kmh WNW 8.2 mph13.2 kmh 29.49 in998.6 mb 0.00 in0.0 mm 0.00 in/hr0.0 mm/hr 0.00 in0.0 mm
03:57 AM 54.6°F12.6°C 52.3°F11.3°C 92% 2.5 mph WNW4.0 kmh WNW 6.0 mph9.7 kmh 29.49 in998.6 mb 0.00 in0.0 mm 0.00 in/hr0.0 mm/hr 0.00 in0.0 mm
03:52 AM 54.5°F12.5°C 52.2°F11.2°C 92% 2.5 mph WNW4.0 kmh WNW 9.4 mph15.1 kmh 29.49 in998.6 mb 0.00 in0.0 mm 0.00 in/hr0.0 mm/hr 0.00 in0.0 mm
03:47 AM 54.5°F12.5°C 52.2°F11.2°C 92% 4.2 mph WNW6.8 kmh WNW 9.4 mph15.1 kmh 29.49 in998.6 mb 0.00 in0.0 mm 0.00 in/hr0.0 mm/hr 0.00 in0.0 mm
03:42 AM 54.3°F12.4°C 52.0°F11.1°C 92% 1.6 mph NW2.6 kmh NW 3.1 mph5.0 kmh 29.49 in998.6 mb 0.00 in0.0 mm 0.00 in/hr0.0 mm/hr 0.00 in0.0 mm
03:37 AM 54.3°F12.4°C 52.0°F11.1°C 92% 1.1 mph NW1.8 kmh NW 4.4 mph7.1 kmh 29.49 in998.6 mb 0.00 in0.0 mm 0.00 in/hr0.0 mm/hr 0.00 in0.0 mm
03:32 AM 54.1°F12.3°C 51.8°F11.0°C 92% 2.1 mph W3.4 kmh W 4.4 mph7.1 kmh 29.49 in998.6 mb 0.00 in0.0 mm 0.00 in/hr0.0 mm/hr 0.00 in0.0 mm
03:27 AM 54.1°F12.3°C 51.8°F11.0°C 92% 1.9 mph WNW3.1 kmh WNW 3.9 mph6.3 kmh 29.49 in998.6 mb 0.00 in0.0 mm 0.00 in/hr0.0 mm/hr 0.00 in0.0 mm
03:22 AM 54.1°F12.3°C 51.8°F11.0°C 92% 1.2 mph W1.9 kmh W 5.4 mph8.7 kmh 29.49 in998.6 mb 0.00 in0.0 mm 0.00 in/hr0.0 mm/hr 0.00 in0.0 mm
03:17 AM 54.1°F12.3°C 51.8°F11.0°C 92% 1.3 mph WSW2.1 kmh WSW 5.4 mph8.7 kmh 29.49 in998.6 mb 0.00 in0.0 mm 0.00 in/hr0.0 mm/hr 0.00 in0.0 mm
03:12 AM 53.9°F12.2°C 51.6°F10.9°C 92% 2.5 mph WSW4.0 kmh WSW 4.4 mph7.1 kmh 29.49 in998.6 mb 0.00 in0.0 mm 0.00 in/hr0.0 mm/hr 0.00 in0.0 mm
03:07 AM 53.7°F12.1°C 51.4°F10.8°C 92% 1.5 mph W2.4 kmh W 5.4 mph8.7 kmh 29.49 in998.6 mb 0.00 in0.0 mm 0.00 in/hr0.0 mm/hr 0.00 in0.0 mm
03:02 AM 53.7°F12.1°C 51.4°F10.8°C 92% 2.0 mph W3.2 kmh W 5.4 mph8.7 kmh 29.50 in999.0 mb 0.00 in0.0 mm 0.00 in/hr0.0 mm/hr 0.00 in0.0 mm
02:57 AM 53.6°F12.0°C 51.3°F10.7°C 92% 2.0 mph W3.2 kmh W 6.0 mph9.7 kmh 29.50 in999.0 mb 0.00 in0.0 mm 0.00 in/hr0.0 mm/hr 0.00 in0.0 mm
02:52 AM 53.4°F11.9°C 51.1°F10.6°C 92% 2.8 mph WSW4.5 kmh WSW 6.3 mph10.1 kmh 29.50 in999.0 mb 0.00 in0.0 mm 0.00 in/hr0.0 mm/hr 0.00 in0.0 mm
02:47 AM 53.3°F11.8°C 50.9°F10.5°C 92% 4.0 mph W6.4 kmh W 12.1 mph19.5 kmh 29.50 in999.0 mb 0.00 in0.0 mm 0.00 in/hr0.0 mm/hr 0.00 in0.0 mm
02:42 AM 53.1°F11.7°C 50.8°F10.4°C 92% 2.5 mph NW4.0 kmh NW 12.1 mph19.5 kmh 29.50 in999.0 mb 0.00 in0.0 mm 0.00 in/hr0.0 mm/hr 0.00 in0.0 mm
02:37 AM 52.9°F11.6°C 50.6°F10.3°C 92% 4.0 mph WNW6.4 kmh WNW 7.0 mph11.3 kmh 29.50 in999.0 mb 0.00 in0.0 mm 0.00 in/hr0.0 mm/hr 0.00 in0.0 mm
02:31 AM 52.8°F11.6°C 50.2°F10.1°C 91% 2.5 mph W4.0 kmh W 5.1 mph8.2 kmh 29.50 in999.0 mb 0.00 in0.0 mm 0.00 in/hr0.0 mm/hr 0.00 in0.0 mm
02:27 AM 52.4°F11.3°C 49.8°F9.9°C 91% 1.5 mph W2.4 kmh W 5.1 mph8.2 kmh 29.50 in999.0 mb 0.00 in0.0 mm 0.00 in/hr0.0 mm/hr 0.00 in0.0 mm
02:22 AM 52.0°F11.1°C 49.4°F9.7°C 91% 2.3 mph W3.7 kmh W 4.4 mph7.1 kmh 29.50 in999.0 mb 0.00 in0.0 mm 0.00 in/hr0.0 mm/hr 0.00 in0.0 mm
02:17 AM 51.9°F11.1°C 49.3°F9.6°C 91% 1.8 mph NW2.9 kmh NW 3.9 mph6.3 kmh 29.49 in998.6 mb 0.00 in0.0 mm 0.00 in/hr0.0 mm/hr 0.00 in0.0 mm
02:11 AM 51.5°F10.8°C 48.6°F9.2°C 90% 2.0 mph WSW3.2 kmh WSW 3.9 mph6.3 kmh 29.49 in998.6 mb 0.00 in0.0 mm 0.00 in/hr0.0 mm/hr 0.00 in0.0 mm
02:07 AM 51.3°F10.7°C 48.4°F9.1°C 90% 1.5 mph W2.4 kmh W 2.8 mph4.5 kmh 29.49 in998.6 mb 0.00 in0.0 mm 0.00 in/hr0.0 mm/hr 0.00 in0.0 mm
02:02 AM 51.3°F10.7°C 48.4°F9.1°C 90% 0.8 mph WNW1.3 kmh WNW 1.9 mph3.1 kmh 29.49 in998.6 mb 0.00 in0.0 mm 0.00 in/hr0.0 mm/hr 0.00 in0.0 mm
01:56 AM 51.3°F10.7°C 48.4°F9.1°C 90% 1.2 mph WSW1.9 kmh WSW 2.8 mph4.5 kmh 29.48 in998.3 mb 0.00 in0.0 mm 0.00 in/hr0.0 mm/hr 0.00 in0.0 mm
01:51 AM 51.1°F10.6°C 48.0°F8.9°C 89% 1.0 mph W1.6 kmh W 2.8 mph4.5 kmh 29.49 in998.6 mb 0.00 in0.0 mm 0.00 in/hr0.0 mm/hr 0.00 in0.0 mm
01:47 AM 51.0°F10.6°C 47.9°F8.8°C 89% 1.1 mph WNW1.8 kmh WNW 1.9 mph3.1 kmh 29.49 in998.6 mb 0.00 in0.0 mm 0.00 in/hr0.0 mm/hr 0.00 in0.0 mm
01:41 AM 50.8°F10.4°C 47.4°F8.6°C 88% 0.9 mph W1.4 kmh W 3.1 mph5.0 kmh 29.49 in998.6 mb 0.00 in0.0 mm 0.00 in/hr0.0 mm/hr 0.00 in0.0 mm
01:36 AM 50.6°F10.3°C 47.2°F8.4°C 88% 1.2 mph W1.9 kmh W 3.1 mph5.0 kmh 29.48 in998.3 mb 0.00 in0.0 mm 0.00 in/hr0.0 mm/hr 0.00 in0.0 mm
01:31 AM 50.8°F10.4°C 47.1°F8.4°C 87% 0.5 mph S0.8 kmh S 1.2 mph1.9 kmh 29.48 in998.3 mb 0.00 in0.0 mm 0.00 in/hr0.0 mm/hr 0.00 in0.0 mm
01:26 AM 51.0°F10.6°C 47.3°F8.5°C 87% 0.4 mph NW0.6 kmh NW 0.7 mph1.1 kmh 29.49 in998.6 mb 0.00 in0.0 mm 0.00 in/hr0.0 mm/hr 0.00 in0.0 mm
01:21 AM 51.1°F10.6°C 47.1°F8.4°C 86% 0.6 mph WNW1.0 kmh WNW 0.7 mph1.1 kmh 29.48 in998.3 mb 0.00 in0.0 mm 0.00 in/hr0.0 mm/hr 0.00 in0.0 mm
01:16 AM 51.3°F10.7°C 47.3°F8.5°C 86% 0.4 mph NE0.6 kmh NE 0.7 mph1.1 kmh 29.48 in998.3 mb 0.00 in0.0 mm 0.00 in/hr0.0 mm/hr 0.00 in0.0 mm
01:11 AM 51.3°F10.7°C 47.3°F8.5°C 86% 0.3 mph NW0.5 kmh NW 2.8 mph4.5 kmh 29.48 in998.3 mb 0.00 in0.0 mm 0.00 in/hr0.0 mm/hr 0.00 in0.0 mm
01:06 AM 51.5°F10.8°C 47.1°F8.4°C 85% 0.7 mph S1.1 kmh S 2.8 mph4.5 kmh 29.48 in998.3 mb 0.00 in0.0 mm 0.00 in/hr0.0 mm/hr 0.00 in0.0 mm
01:01 AM 51.7°F10.9°C 47.3°F8.5°C 85% 1.2 mph S1.9 kmh S 2.3 mph3.7 kmh 29.48 in998.3 mb 0.00 in0.0 mm 0.00 in/hr0.0 mm/hr 0.00 in0.0 mm
12:56 AM 52.0°F11.1°C 47.3°F8.5°C 84% 0.6 mph NW1.0 kmh NW 0.7 mph1.1 kmh 29.49 in998.6 mb 0.00 in0.0 mm 0.00 in/hr0.0 mm/hr 0.00 in0.0 mm
12:51 AM 52.4°F11.3°C 47.7°F8.7°C 84% 0.3 mph NW0.5 kmh NW 0.7 mph1.1 kmh 29.49 in998.6 mb 0.00 in0.0 mm 0.00 in/hr0.0 mm/hr 0.00 in0.0 mm
12:46 AM 52.6°F11.4°C 47.9°F8.8°C 84% 0.3 mph WSW0.5 kmh WSW 1.2 mph1.9 kmh 29.49 in998.6 mb 0.00 in0.0 mm 0.00 in/hr0.0 mm/hr 0.00 in0.0 mm
12:41 AM 52.8°F11.6°C 47.8°F8.8°C 83% 0.3 mph S0.5 kmh S 1.9 mph3.1 kmh 29.49 in998.6 mb 0.00 in0.0 mm 0.00 in/hr0.0 mm/hr 0.00 in0.0 mm
12:36 AM 53.1°F11.7°C 48.0°F8.9°C 83% 0.3 mph WSW0.5 kmh WSW 1.9 mph3.1 kmh 29.49 in998.6 mb 0.00 in0.0 mm 0.00 in/hr0.0 mm/hr 0.00 in0.0 mm
12:31 AM 53.3°F11.8°C 48.2°F9.0°C 83% 1.1 mph SSW1.8 kmh SSW 3.5 mph5.6 kmh 29.50 in999.0 mb 0.00 in0.0 mm 0.00 in/hr0.0 mm/hr 0.00 in0.0 mm
12:26 AM 53.6°F12.0°C 48.3°F9.1°C 82% 0.3 mph SSE0.5 kmh SSE 3.5 mph5.6 kmh 29.50 in999.0 mb 0.00 in0.0 mm 0.00 in/hr0.0 mm/hr 0.00 in0.0 mm
12:21 AM 53.7°F12.1°C 48.4°F9.1°C 82% 0.4 mph SW0.6 kmh SW 1.9 mph3.1 kmh 29.50 in999.0 mb 0.00 in0.0 mm 0.00 in/hr0.0 mm/hr 0.00 in0.0 mm
12:16 AM 54.1°F12.3°C 48.8°F9.3°C 82% 0.3 mph SW0.5 kmh SW 4.7 mph7.6 kmh 29.50 in999.0 mb 0.00 in0.0 mm 0.00 in/hr0.0 mm/hr 0.00 in0.0 mm
12:11 AM 54.1°F12.3°C 48.8°F9.3°C 82% 1.6 mph S2.6 kmh S 4.7 mph7.6 kmh 29.50 in999.0 mb 0.00 in0.0 mm 0.00 in/hr0.0 mm/hr 0.00 in0.0 mm
12:06 AM 54.5°F12.5°C 48.8°F9.3°C 81% 0.9 mph SSW1.4 kmh SSW 1.9 mph3.1 kmh 29.50 in999.0 mb 0.00 in0.0 mm 0.00 in/hr0.0 mm/hr 0.00 in0.0 mm
12:01 AM 54.6°F12.6°C 48.9°F9.4°C 81% 0.6 mph SSW1.0 kmh SSW 1.6 mph2.6 kmh 29.50 in999.0 mb 0.00 in0.0 mm 0.00 in/hr0.0 mm/hr 0.00 in0.0 mm